Time;durP1;ratioP1;P1;durP2;ratioP2;P2;SDS_P1;SDS_P2;PMS_P1;PMS_P2;Temp;Humidity;BMP_temperature;BMP_pressure;BME280_temperature;BME280_humidity;BME280_pressure;Samples;Min_cycle;Max_cycle;Signal;HPM_P1;HPM_P2
2023/08/01 00:00:13;;;;;;;6.18;3.00;;;;;;;;;;5089347;28;20493;-71
2023/08/01 00:02:42;;;;;;;4.80;2.85;;;;;;;;;;5089369;28;20082;-72
2023/08/01 00:05:09;;;;;;;5.70;3.03;;;;;;;;;;5090574;28;20401;-73
2023/08/01 00:07:35;;;;;;;4.70;2.90;;;;;;;;;;5089717;28;20492;-72
2023/08/01 00:10:02;;;;;;;6.10;2.90;;;;;;;;;;5089473;28;20560;-71
2023/08/01 00:12:28;;;;;;;4.50;3.28;;;;;;;;;;5096041;28;20374;-71
2023/08/01 00:14:54;;;;;;;5.15;3.15;;;;;;;;;;5089633;28;20174;-71
2023/08/01 00:17:20;;;;;;;5.60;3.03;;;;;;;;;;5086116;28;20104;-71
2023/08/01 00:19:47;;;;;;;4.80;3.25;;;;;;;;;;5069104;28;20524;-71
2023/08/01 00:22:13;;;;;;;4.97;3.50;;;;;;;;;;5077726;28;20036;-71
2023/08/01 00:24:39;;;;;;;5.45;3.50;;;;;;;;;;5089004;28;20028;-72
2023/08/01 00:27:07;;;;;;;6.60;3.38;;;;;;;;;;5089850;28;20107;-71
2023/08/01 00:29:33;;;;;;;6.85;3.88;;;;;;;;;;5089143;28;20068;-70
2023/08/01 00:31:59;;;;;;;6.07;3.65;;;;;;;;;;5088377;28;20074;-72
2023/08/01 00:34:26;;;;;;;5.55;3.22;;;;;;;;;;5089222;28;20677;-72
2023/08/01 00:36:52;;;;;;;4.90;3.15;;;;;;;;;;5071257;28;20024;-72
2023/08/01 00:39:18;;;;;;;4.65;2.80;;;;;;;;;;5087995;28;20043;-72
2023/08/01 00:41:44;;;;;;;7.03;3.30;;;;;;;;;;5095666;28;20028;-72
2023/08/01 00:44:10;;;;;;;5.13;3.00;;;;;;;;;;5087472;28;20036;-71
2023/08/01 00:46:36;;;;;;;4.78;3.08;;;;;;;;;;5067028;28;20475;-72
2023/08/01 00:49:03;;;;;;;8.07;3.92;;;;;;;;;;5066985;28;20040;-72
2023/08/01 00:51:31;;;;;;;10.10;3.80;;;;;;;;;;5086965;28;20020;-72
2023/08/01 00:53:58;;;;;;;6.47;3.25;;;;;;;;;;5077887;28;20083;-71
2023/08/01 00:56:24;;;;;;;6.60;3.67;;;;;;;;;;5093728;28;20023;-71
2023/08/01 00:58:50;;;;;;;6.82;3.80;;;;;;;;;;5094455;28;20035;-71
2023/08/01 01:01:16;;;;;;;4.68;3.83;;;;;;;;;;5079486;28;20131;-71
2023/08/01 01:03:42;;;;;;;6.40;4.30;;;;;;;;;;5079423;28;20036;-71
2023/08/01 01:06:23;;;;;;;6.88;3.72;;;;;;;;;;5088686;28;20027;-71
2023/08/01 01:08:50;;;;;;;7.68;4.10;;;;;;;;;;5088242;28;20029;-71
2023/08/01 01:11:17;;;;;;;7.50;4.20;;;;;;;;;;5077686;28;20108;-71
2023/08/01 01:13:43;;;;;;;6.60;4.05;;;;;;;;;;5079339;28;20028;-71
2023/08/01 01:16:09;;;;;;;7.72;4.00;;;;;;;;;;5089412;28;20047;-70
2023/08/01 01:18:35;;;;;;;7.03;4.05;;;;;;;;;;5074850;28;20085;-71
2023/08/01 01:21:01;;;;;;;6.57;4.07;;;;;;;;;;5092404;28;20132;-73
2023/08/01 01:23:27;;;;;;;7.57;4.30;;;;;;;;;;5094687;28;20032;-72
2023/08/01 01:25:55;;;;;;;7.53;4.00;;;;;;;;;;5092893;28;20023;-72
2023/08/01 01:28:21;;;;;;;8.68;4.40;;;;;;;;;;5092979;28;20032;-72
2023/08/01 01:30:49;;;;;;;7.95;4.68;;;;;;;;;;5094697;28;20028;-72
2023/08/01 01:33:16;;;;;;;8.98;4.45;;;;;;;;;;5092094;28;20040;-73
2023/08/01 01:35:42;;;;;;;8.27;4.88;;;;;;;;;;5093125;28;20059;-72
2023/08/01 01:38:09;;;;;;;5.68;4.15;;;;;;;;;;5093013;28;20036;-72
2023/08/01 01:40:35;;;;;;;9.70;4.25;;;;;;;;;;5069445;28;20111;-73
2023/08/01 01:43:01;;;;;;;9.88;4.70;;;;;;;;;;5052171;28;20033;-72
2023/08/01 01:45:27;;;;;;;8.20;4.15;;;;;;;;;;5050121;28;20039;-72
2023/08/01 01:47:53;;;;;;;6.72;4.10;;;;;;;;;;5055513;28;20027;-72
2023/08/01 01:50:19;;;;;;;13.38;4.25;;;;;;;;;;5052342;28;20024;-72
2023/08/01 01:52:46;;;;;;;6.13;4.10;;;;;;;;;;5053799;28;20025;-71
2023/08/01 01:55:12;;;;;;;7.70;4.28;;;;;;;;;;5053183;28;20021;-71
2023/08/01 01:57:40;;;;;;;5.43;4.03;;;;;;;;;;5052034;28;20102;-71
2023/08/01 02:00:10;;;;;;;9.02;4.45;;;;;;;;;;5052164;28;20633;-71
2023/08/01 02:02:38;;;;;;;6.97;4.13;;;;;;;;;;5053335;28;20095;-71
2023/08/01 02:05:05;;;;;;;9.55;4.15;;;;;;;;;;5051225;28;20017;-71
2023/08/01 02:07:33;;;;;;;19.77;5.40;;;;;;;;;;5053364;28;20043;-73
2023/08/01 02:10:00;;;;;;;7.53;4.57;;;;;;;;;;5053909;28;20056;-72
2023/08/01 02:12:34;;;;;;;8.48;4.50;;;;;;;;;;5071992;28;20054;-71
2023/08/01 02:15:00;;;;;;;5.47;3.92;;;;;;;;;;5072656;28;20131;-72
2023/08/01 02:17:26;;;;;;;13.45;4.93;;;;;;;;;;5071711;28;20119;-72
2023/08/01 02:19:53;;;;;;;9.50;4.15;;;;;;;;;;5071610;28;20048;-72
2023/08/01 02:22:25;;;;;;;11.52;4.65;;;;;;;;;;5071762;28;20544;-71
2023/08/01 02:24:52;;;;;;;9.45;4.55;;;;;;;;;;5071073;28;20097;-72
2023/08/01 02:27:36;;;;;;;8.88;4.80;;;;;;;;;;5071572;28;20112;-72
2023/08/01 02:30:43;;;;;;;9.20;4.40;;;;;;;;;;5051689;28;20051;-72
2023/08/01 02:33:13;;;;;;;7.20;3.83;;;;;;;;;;5071686;28;20040;-71
2023/08/01 02:35:40;;;;;;;9.55;4.10;;;;;;;;;;5072087;28;20030;-71
2023/08/01 02:38:06;;;;;;;15.77;4.55;;;;;;;;;;5073277;28;20032;-72
2023/08/01 02:40:32;;;;;;;6.53;4.28;;;;;;;;;;5071761;28;20032;-72
2023/08/01 02:42:58;;;;;;;14.90;4.80;;;;;;;;;;5098610;28;20030;-72
2023/08/01 02:45:25;;;;;;;9.38;4.50;;;;;;;;;;5092495;28;20111;-72
2023/08/01 02:47:52;;;;;;;7.93;4.28;;;;;;;;;;5074651;28;20019;-72
2023/08/01 02:50:18;;;;;;;10.82;4.32;;;;;;;;;;5074779;28;20113;-72
2023/08/01 02:52:44;;;;;;;6.03;3.97;;;;;;;;;;5092713;28;20016;-71
2023/08/01 02:55:10;;;;;;;7.50;4.78;;;;;;;;;;5074266;28;20059;-71
2023/08/01 02:57:36;;;;;;;10.82;4.45;;;;;;;;;;5092674;28;20458;-71
2023/08/01 03:00:05;;;;;;;10.13;4.53;;;;;;;;;;5092436;28;20043;-73
2023/08/01 03:02:32;;;;;;;10.48;4.78;;;;;;;;;;5092222;28;20024;-73
2023/08/01 03:04:58;;;;;;;9.98;4.57;;;;;;;;;;5074093;28;20114;-73
2023/08/01 03:07:24;;;;;;;11.23;5.68;;;;;;;;;;5092363;28;20116;-73
2023/08/01 03:09:50;;;;;;;9.43;4.93;;;;;;;;;;5074341;28;20050;-72
2023/08/01 03:12:16;;;;;;;7.97;5.10;;;;;;;;;;5074108;28;20020;-71
2023/08/01 03:14:43;;;;;;;8.70;4.80;;;;;;;;;;5073842;28;20061;-71
2023/08/01 03:17:09;;;;;;;12.43;5.65;;;;;;;;;;5074102;28;20503;-71
2023/08/01 03:19:36;;;;;;;14.32;6.38;;;;;;;;;;5082588;28;20032;-71
2023/08/01 03:22:04;;;;;;;12.30;5.85;;;;;;;;;;5072493;28;20035;-71
2023/08/01 03:24:34;;;;;;;12.38;6.82;;;;;;;;;;5082020;28;20408;-71
2023/08/01 03:27:01;;;;;;;11.43;6.30;;;;;;;;;;5091993;28;20035;-71
2023/08/01 03:29:26;;;;;;;10.55;5.78;;;;;;;;;;5091881;28;20512;-71
2023/08/01 03:31:53;;;;;;;9.43;5.32;;;;;;;;;;5097221;28;20027;-70
2023/08/01 03:34:19;;;;;;;13.25;4.93;;;;;;;;;;5093416;28;20107;-71
2023/08/01 03:36:46;;;;;;;8.38;5.53;;;;;;;;;;5072835;28;20036;-71
2023/08/01 03:39:11;;;;;;;12.70;6.07;;;;;;;;;;5073511;28;20031;-71
2023/08/01 03:41:37;;;;;;;6.95;4.80;;;;;;;;;;5073316;28;20485;-71
2023/08/01 03:44:04;;;;;;;11.73;5.65;;;;;;;;;;5091032;28;20078;-71
2023/08/01 03:46:31;;;;;;;13.25;5.75;;;;;;;;;;5092795;28;20101;-71
2023/08/01 03:48:57;;;;;;;14.98;6.18;;;;;;;;;;5073548;28;20024;-71
2023/08/01 03:51:24;;;;;;;8.85;4.95;;;;;;;;;;5073571;28;20493;-71
2023/08/01 03:53:51;;;;;;;13.57;5.50;;;;;;;;;;5090972;28;20028;-72
2023/08/01 03:56:17;;;;;;;19.08;5.60;;;;;;;;;;5072469;28;20044;-72
2023/08/01 03:58:43;;;;;;;15.52;6.20;;;;;;;;;;5091592;28;20051;-72
2023/08/01 04:01:09;;;;;;;12.57;5.75;;;;;;;;;;5073118;28;20489;-72
2023/08/01 04:03:35;;;;;;;9.10;5.35;;;;;;;;;;5090985;28;20030;-71
2023/08/01 04:06:01;;;;;;;14.88;6.25;;;;;;;;;;5091244;28;20036;-71
2023/08/01 04:08:28;;;;;;;8.45;5.40;;;;;;;;;;5073253;28;20027;-71
2023/08/01 04:10:54;;;;;;;14.63;4.97;;;;;;;;;;5091305;28;20066;-71
2023/08/01 04:13:20;;;;;;;12.77;6.28;;;;;;;;;;5090740;28;20056;-71
2023/08/01 04:15:46;;;;;;;17.17;6.05;;;;;;;;;;5091069;28;20397;-72
2023/08/01 04:18:12;;;;;;;15.93;6.32;;;;;;;;;;5081678;28;20024;-72
2023/08/01 04:20:38;;;;;;;19.58;7.25;;;;;;;;;;5096548;28;20320;-72
2023/08/01 04:23:04;;;;;;;17.35;5.93;;;;;;;;;;5090885;28;20047;-72
2023/08/01 04:25:30;;;;;;;9.32;5.97;;;;;;;;;;5071600;28;20024;-72
2023/08/01 04:27:56;;;;;;;11.38;5.70;;;;;;;;;;5072524;28;20486;-71
2023/08/01 04:30:22;;;;;;;15.77;5.38;;;;;;;;;;5076256;28;20393;-72
2023/08/01 04:32:48;;;;;;;10.57;5.00;;;;;;;;;;5100301;28;20441;-72
2023/08/01 04:35:14;;;;;;;9.35;5.00;;;;;;;;;;5095170;28;20483;-70
2023/08/01 04:37:40;;;;;;;13.30;5.82;;;;;;;;;;5095485;28;20055;-72
2023/08/01 04:40:07;;;;;;;14.02;5.75;;;;;;;;;;5095285;28;20378;-72
2023/08/01 04:42:33;;;;;;;12.13;5.35;;;;;;;;;;5095435;28;20075;-72
2023/08/01 04:45:00;;;;;;;9.93;4.90;;;;;;;;;;5095149;28;20028;-71
2023/08/01 04:47:26;;;;;;;11.43;4.93;;;;;;;;;;5095356;28;20044;-72
2023/08/01 04:49:52;;;;;;;12.75;4.32;;;;;;;;;;5095269;28;20077;-72
2023/08/01 04:52:18;;;;;;;13.30;4.70;;;;;;;;;;5092040;28;20020;-72
2023/08/01 04:54:44;;;;;;;7.18;4.80;;;;;;;;;;5098231;28;20466;-71
2023/08/01 04:57:10;;;;;;;6.05;3.95;;;;;;;;;;5095176;28;20028;-72
2023/08/01 04:59:36;;;;;;;18.25;5.90;;;;;;;;;;5068699;28;20470;-72
2023/08/01 05:02:02;;;;;;;11.88;4.05;;;;;;;;;;5095183;28;20024;-71
2023/08/01 05:04:28;;;;;;;11.32;4.45;;;;;;;;;;5095322;28;20050;-71
2023/08/01 05:06:54;;;;;;;7.53;4.20;;;;;;;;;;5095382;28;20423;-70
2023/08/01 05:09:20;;;;;;;7.53;4.60;;;;;;;;;;5094778;28;20040;-71
2023/08/01 05:11:46;;;;;;;10.25;4.60;;;;;;;;;;5094565;28;20041;-69
2023/08/01 05:14:12;;;;;;;7.78;4.32;;;;;;;;;;5095026;28;20028;-71
2023/08/01 05:16:38;;;;;;;7.63;4.30;;;;;;;;;;5093627;28;20654;-70
2023/08/01 05:19:04;;;;;;;7.60;4.35;;;;;;;;;;5093083;28;20413;-70
2023/08/01 05:21:30;;;;;;;9.63;4.03;;;;;;;;;;5093172;28;20035;-70
2023/08/01 05:23:56;;;;;;;5.78;3.78;;;;;;;;;;5092965;28;20024;-70
2023/08/01 05:26:22;;;;;;;8.65;3.80;;;;;;;;;;5093899;28;20358;-71
2023/08/01 05:28:48;;;;;;;13.38;4.30;;;;;;;;;;5076626;28;20078;-71
2023/08/01 05:31:14;;;;;;;10.05;4.30;;;;;;;;;;5094870;28;20435;-71
2023/08/01 05:33:40;;;;;;;12.55;4.40;;;;;;;;;;5094115;28;20459;-72
2023/08/01 05:36:05;;;;;;;12.80;4.47;;;;;;;;;;5094222;28;20044;-71
2023/08/01 05:38:31;;;;;;;13.13;4.13;;;;;;;;;;5092866;28;20065;-70
2023/08/01 05:40:57;;;;;;;9.77;4.53;;;;;;;;;;5092092;28;20374;-72
2023/08/01 05:43:23;;;;;;;11.70;4.53;;;;;;;;;;5079848;28;20032;-72
2023/08/01 05:45:49;;;;;;;9.35;4.35;;;;;;;;;;5094504;28;20073;-71
2023/08/01 05:48:15;;;;;;;7.85;4.15;;;;;;;;;;5093667;28;20118;-72
2023/08/01 05:50:41;;;;;;;8.25;4.43;;;;;;;;;;5093878;28;20411;-73
2023/08/01 05:53:07;;;;;;;4.68;3.70;;;;;;;;;;5095053;28;20470;-71
2023/08/01 05:55:33;;;;;;;6.55;3.60;;;;;;;;;;5095245;28;20076;-72
2023/08/01 05:57:59;;;;;;;5.53;3.67;;;;;;;;;;5094061;28;20028;-72
2023/08/01 06:00:25;;;;;;;9.85;3.92;;;;;;;;;;5093836;28;20115;-71
2023/08/01 06:02:51;;;;;;;9.65;4.10;;;;;;;;;;5085235;28;20032;-70
2023/08/01 06:05:17;;;;;;;8.60;3.95;;;;;;;;;;5093563;28;20027;-71
2023/08/01 06:07:43;;;;;;;10.32;4.03;;;;;;;;;;5093425;28;20028;-71
2023/08/01 06:10:09;;;;;;;10.25;3.85;;;;;;;;;;5093772;28;20027;-71
2023/08/01 06:12:35;;;;;;;6.25;4.10;;;;;;;;;;5093771;28;20028;-72
2023/08/01 06:15:02;;;;;;;10.73;3.67;;;;;;;;;;5093460;28;20030;-73
2023/08/01 06:17:28;;;;;;;4.30;3.30;;;;;;;;;;5093265;28;20043;-72
2023/08/01 06:19:54;;;;;;;8.15;4.00;;;;;;;;;;5093472;28;20020;-72
2023/08/01 06:22:20;;;;;;;5.22;3.88;;;;;;;;;;5094473;28;20047;-72
2023/08/01 06:24:46;;;;;;;12.57;9.15;;;;;;;;;;5094502;28;20470;-72
2023/08/01 06:27:14;;;;;;;10.23;4.07;;;;;;;;;;5094207;28;20028;-70
2023/08/01 06:29:40;;;;;;;17.63;4.30;;;;;;;;;;5093958;28;20024;-72
2023/08/01 06:32:07;;;;;;;12.15;4.20;;;;;;;;;;5092838;28;20066;-72
2023/08/01 06:34:32;;;;;;;6.28;3.85;;;;;;;;;;5092617;28;20028;-72
2023/08/01 06:36:58;;;;;;;6.15;3.78;;;;;;;;;;5092821;28;20039;-72
2023/08/01 06:39:24;;;;;;;8.98;4.10;;;;;;;;;;5092431;28;20020;-72
2023/08/01 06:41:50;;;;;;;7.78;3.92;;;;;;;;;;5092719;28;20051;-71
2023/08/01 06:44:16;;;;;;;7.25;3.53;;;;;;;;;;5092580;28;20020;-72
2023/08/01 06:46:42;;;;;;;7.03;3.80;;;;;;;;;;5092585;28;20036;-73
2023/08/01 06:49:08;;;;;;;6.07;4.05;;;;;;;;;;5092801;28;20028;-73
2023/08/01 06:51:34;;;;;;;10.63;3.83;;;;;;;;;;5091499;28;20454;-73
2023/08/01 06:54:00;;;;;;;9.68;3.97;;;;;;;;;;5092904;28;20039;-73
2023/08/01 06:56:26;;;;;;;9.30;3.88;;;;;;;;;;5092862;28;20496;-73
2023/08/01 06:58:52;;;;;;;6.95;3.92;;;;;;;;;;5092663;28;20028;-73
2023/08/01 07:01:18;;;;;;;10.85;4.40;;;;;;;;;;5092304;28;20038;-73
2023/08/01 07:03:45;;;;;;;5.57;3.30;;;;;;;;;;5092025;28;20108;-74
2023/08/01 07:06:12;;;;;;;7.38;4.07;;;;;;;;;;5091851;28;20044;-70
2023/08/01 07:08:38;;;;;;;7.82;4.00;;;;;;;;;;5092474;28;20020;-74
2023/08/01 07:11:04;;;;;;;8.45;3.90;;;;;;;;;;5092190;28;20039;-73
2023/08/01 07:13:30;;;;;;;5.78;4.15;;;;;;;;;;5091926;28;20073;-75
2023/08/01 07:15:56;;;;;;;5.22;3.60;;;;;;;;;;5091698;28;20035;-73
2023/08/01 07:18:21;;;;;;;7.63;4.20;;;;;;;;;;5091425;28;20102;-71
2023/08/01 07:20:59;;;;;;;5.88;3.80;;;;;;;;;;5091981;28;20040;-73
2023/08/01 07:23:25;;;;;;;7.30;3.92;;;;;;;;;;5091724;28;20039;-72
2023/08/01 07:25:50;;;;;;;4.95;3.78;;;;;;;;;;5074703;28;20032;-73
2023/08/01 07:28:17;;;;;;;7.63;4.78;;;;;;;;;;5092332;28;20032;-71
2023/08/01 07:30:43;;;;;;;4.70;3.80;;;;;;;;;;5091972;28;20035;-73
2023/08/01 07:33:09;;;;;;;6.30;3.97;;;;;;;;;;5091891;28;20040;-72
2023/08/01 07:35:35;;;;;;;6.53;3.80;;;;;;;;;;5091993;28;20073;-71
2023/08/01 07:38:01;;;;;;;9.20;4.43;;;;;;;;;;5092020;28;20069;-73
2023/08/01 07:40:26;;;;;;;6.63;4.18;;;;;;;;;;5091990;28;20107;-72
2023/08/01 07:42:52;;;;;;;8.40;4.57;;;;;;;;;;5091407;28;20031;-72
2023/08/01 07:45:19;;;;;;;9.70;4.43;;;;;;;;;;5091773;28;20032;-73
2023/08/01 07:47:45;;;;;;;7.03;4.05;;;;;;;;;;5091450;28;20397;-74
2023/08/01 07:50:12;;;;;;;4.85;3.97;;;;;;;;;;5091778;28;20024;-73
2023/08/01 07:52:38;;;;;;;11.98;4.20;;;;;;;;;;5091985;28;20103;-72
2023/08/01 07:55:04;;;;;;;6.72;4.03;;;;;;;;;;5091589;28;20027;-71
2023/08/01 07:57:30;;;;;;;6.25;3.78;;;;;;;;;;5091789;28;20073;-72
2023/08/01 07:59:55;;;;;;;6.10;4.00;;;;;;;;;;5091669;28;20091;-73
2023/08/01 08:02:21;;;;;;;16.60;11.75;;;;;;;;;;5091972;28;20075;-71
2023/08/01 08:04:47;;;;;;;7.30;3.95;;;;;;;;;;5095406;28;20020;-72
2023/08/01 08:07:13;;;;;;;4.80;3.63;;;;;;;;;;5095918;28;20040;-72
2023/08/01 08:09:39;;;;;;;7.00;4.07;;;;;;;;;;5095792;28;20032;-74
2023/08/01 08:12:05;;;;;;;8.35;4.10;;;;;;;;;;5096204;28;20535;-72
2023/08/01 08:14:31;;;;;;;7.50;4.30;;;;;;;;;;5095482;28;20030;-72
2023/08/01 08:16:57;;;;;;;6.53;4.07;;;;;;;;;;5095332;28;20044;-71
2023/08/01 08:19:25;;;;;;;5.80;3.67;;;;;;;;;;5095430;28;20024;-71
2023/08/01 08:21:50;;;;;;;7.22;4.40;;;;;;;;;;5095081;28;20158;-72
2023/08/01 08:24:16;;;;;;;6.78;4.00;;;;;;;;;;5095044;28;20497;-73
2023/08/01 08:26:42;;;;;;;4.88;3.53;;;;;;;;;;5095432;28;20040;-72
2023/08/01 08:29:08;;;;;;;9.45;4.28;;;;;;;;;;5077238;28;20466;-74
2023/08/01 08:31:34;;;;;;;4.35;3.75;;;;;;;;;;5095239;28;20489;-72
2023/08/01 08:34:00;;;;;;;7.13;3.78;;;;;;;;;;5095033;28;20109;-72
2023/08/01 08:36:26;;;;;;;4.82;4.28;;;;;;;;;;5095448;28;20031;-73
2023/08/01 08:38:51;;;;;;;5.78;4.03;;;;;;;;;;5095100;28;20020;-72
2023/08/01 08:41:22;;;;;;;6.45;4.22;;;;;;;;;;5094776;28;20036;-73
2023/08/01 08:43:49;;;;;;;5.05;3.65;;;;;;;;;;5094792;28;20539;-73
2023/08/01 08:46:16;;;;;;;7.95;3.88;;;;;;;;;;5094770;28;20028;-73
2023/08/01 08:48:45;;;;;;;4.90;3.88;;;;;;;;;;5094743;28;20478;-73
2023/08/01 08:51:12;;;;;;;9.82;3.95;;;;;;;;;;5076606;28;20024;-72
2023/08/01 08:53:40;;;;;;;5.20;4.15;;;;;;;;;;5094516;28;20494;-72
2023/08/01 08:56:08;;;;;;;4.75;3.92;;;;;;;;;;5094651;28;20492;-72
2023/08/01 08:58:36;;;;;;;8.95;4.53;;;;;;;;;;5094474;28;20031;-73
2023/08/01 09:01:02;;;;;;;10.18;4.70;;;;;;;;;;5094231;28;20028;-73
2023/08/01 09:03:28;;;;;;;7.55;4.25;;;;;;;;;;5094427;28;20451;-73
2023/08/01 09:06:03;;;;;;;7.28;4.40;;;;;;;;;;5094507;28;20490;-72
2023/08/01 09:08:32;;;;;;;8.73;4.97;;;;;;;;;;5076669;28;20424;-72
2023/08/01 09:10:58;;;;;;;8.77;3.92;;;;;;;;;;5094240;28;20077;-71
2023/08/01 09:13:24;;;;;;;7.82;4.32;;;;;;;;;;5075488;28;20036;-72
2023/08/01 09:15:51;;;;;;;5.18;4.10;;;;;;;;;;5094500;28;20056;-72
2023/08/01 09:18:17;;;;;;;4.22;3.70;;;;;;;;;;5094327;28;20438;-72
2023/08/01 09:20:45;;;;;;;5.10;4.10;;;;;;;;;;5094497;28;20063;-72
2023/08/01 09:23:11;;;;;;;5.82;4.10;;;;;;;;;;5094036;28;20020;-72
2023/08/01 09:25:38;;;;;;;5.53;4.10;;;;;;;;;;5093693;28;20123;-72
2023/08/01 09:28:14;;;;;;;5.20;3.83;;;;;;;;;;5094598;28;20473;-72
2023/08/01 09:30:51;;;;;;;8.80;4.40;;;;;;;;;;5093211;28;20047;-71
2023/08/01 09:33:18;;;;;;;5.00;4.07;;;;;;;;;;5093737;28;20055;-73
2023/08/01 09:35:45;;;;;;;7.38;4.32;;;;;;;;;;5094296;28;20497;-72
2023/08/01 09:38:15;;;;;;;6.82;4.22;;;;;;;;;;5093955;28;20193;-72
2023/08/01 09:40:42;;;;;;;8.63;4.45;;;;;;;;;;5093890;28;20114;-73
2023/08/01 09:43:10;;;;;;;6.55;4.25;;;;;;;;;;5094099;28;20083;-73
2023/08/01 09:45:36;;;;;;;5.68;3.92;;;;;;;;;;5093664;28;20036;-72
2023/08/01 09:48:02;;;;;;;5.93;4.03;;;;;;;;;;5093686;28;20107;-71
2023/08/01 09:50:29;;;;;;;5.97;4.47;;;;;;;;;;5088302;28;20032;-72
2023/08/01 09:52:54;;;;;;;9.00;4.20;;;;;;;;;;5092686;28;20096;-72
2023/08/01 09:55:32;;;;;;;5.95;4.40;;;;;;;;;;5092985;28;20036;-73
2023/08/01 09:57:59;;;;;;;6.00;4.68;;;;;;;;;;5093627;28;20116;-71
2023/08/01 10:00:27;;;;;;;7.93;4.40;;;;;;;;;;5092288;28;20031;-71
2023/08/01 10:02:55;;;;;;;7.50;4.50;;;;;;;;;;5093381;28;20040;-71
2023/08/01 10:05:21;;;;;;;6.40;4.38;;;;;;;;;;5093143;28;20032;-71
2023/08/01 10:07:48;;;;;;;7.18;4.40;;;;;;;;;;5093399;28;20027;-73
2023/08/01 10:10:15;;;;;;;6.25;4.65;;;;;;;;;;5093481;28;20039;-72
2023/08/01 10:12:48;;;;;;;6.43;4.40;;;;;;;;;;5093414;28;20028;-72
2023/08/01 10:15:15;;;;;;;5.47;4.57;;;;;;;;;;5092978;28;20088;-72
2023/08/01 10:17:41;;;;;;;11.48;4.57;;;;;;;;;;5092633;28;20103;-72
2023/08/01 10:20:09;;;;;;;7.30;4.55;;;;;;;;;;5091929;28;20143;-72
2023/08/01 10:22:35;;;;;;;8.95;4.80;;;;;;;;;;5073628;28;20036;-73
2023/08/01 10:25:01;;;;;;;5.43;4.65;;;;;;;;;;5093200;28;20143;-72
2023/08/01 10:27:27;;;;;;;6.47;4.60;;;;;;;;;;5093013;28;20028;-72
2023/08/01 10:30:00;;;;;;;7.57;4.70;;;;;;;;;;5091122;28;20062;-73
2023/08/01 10:32:37;;;;;;;4.93;4.32;;;;;;;;;;5092975;28;20032;-72
2023/08/01 10:35:04;;;;;;;7.65;4.25;;;;;;;;;;5092935;28;20038;-71
2023/08/01 10:37:43;;;;;;;5.80;4.53;;;;;;;;;;5093018;28;20024;-72
2023/08/01 10:40:10;;;;;;;7.85;4.47;;;;;;;;;;5093006;28;20031;-72
2023/08/01 10:42:54;;;;;;;9.02;4.32;;;;;;;;;;5092504;28;20473;-71
2023/08/01 10:45:21;;;;;;;5.53;4.60;;;;;;;;;;5093947;28;20028;-72
2023/08/01 10:47:51;;;;;;;6.60;5.00;;;;;;;;;;5093038;28;20076;-70
2023/08/01 10:50:17;;;;;;;6.13;4.78;;;;;;;;;;5092882;28;20085;-72
2023/08/01 10:52:44;;;;;;;6.55;4.68;;;;;;;;;;5092834;28;20094;-71
2023/08/01 10:55:10;;;;;;;9.15;4.35;;;;;;;;;;5092882;28;20049;-72
2023/08/01 10:57:38;;;;;;;9.18;4.88;;;;;;;;;;5093085;28;20028;-72
2023/08/01 11:00:09;;;;;;;5.28;4.70;;;;;;;;;;5093118;28;20055;-72
2023/08/01 11:02:35;;;;;;;5.47;4.20;;;;;;;;;;5092767;28;20049;-71
2023/08/01 11:05:06;;;;;;;6.57;4.22;;;;;;;;;;5092742;28;20028;-72
2023/08/01 11:07:34;;;;;;;7.53;4.30;;;;;;;;;;5092789;28;20458;-71
2023/08/01 11:10:08;;;;;;;6.07;4.57;;;;;;;;;;5092851;28;20020;-73
2023/08/01 11:12:36;;;;;;;5.97;4.05;;;;;;;;;;5092911;28;20107;-72
2023/08/01 11:15:03;;;;;;;7.43;4.30;;;;;;;;;;5092063;28;20039;-72
2023/08/01 11:17:30;;;;;;;6.40;4.65;;;;;;;;;;5092277;28;20395;-73
2023/08/01 11:20:08;;;;;;;10.30;5.32;;;;;;;;;;5091108;28;20028;-72
2023/08/01 11:22:35;;;;;;;5.57;4.50;;;;;;;;;;5092768;28;20036;-73
2023/08/01 11:25:02;;;;;;;6.00;4.60;;;;;;;;;;5092516;28;20035;-72
2023/08/01 11:27:28;;;;;;;6.65;4.82;;;;;;;;;;5092471;28;20032;-72
2023/08/01 11:29:54;;;;;;;7.43;5.03;;;;;;;;;;5074289;28;20019;-69
2023/08/01 11:32:21;;;;;;;7.47;4.53;;;;;;;;;;5092512;28;20132;-72
2023/08/01 11:34:47;;;;;;;8.32;4.50;;;;;;;;;;5092028;28;20098;-72
2023/08/01 11:37:16;;;;;;;6.57;3.88;;;;;;;;;;5092216;28;20040;-72
2023/08/01 11:39:42;;;;;;;5.90;4.47;;;;;;;;;;5092546;28;20016;-72
2023/08/01 11:42:16;;;;;;;7.70;5.35;;;;;;;;;;5092189;28;20154;-72
2023/08/01 11:44:43;;;;;;;18.23;5.63;;;;;;;;;;5092189;28;20063;-71
2023/08/01 11:47:17;;;;;;;6.38;4.35;;;;;;;;;;5073968;28;20474;-71
2023/08/01 11:49:48;;;;;;;6.45;4.18;;;;;;;;;;5056863;28;20089;-72
2023/08/01 11:52:27;;;;;;;10.52;4.53;;;;;;;;;;5091450;28;20039;-72
2023/08/01 11:54:54;;;;;;;9.20;4.55;;;;;;;;;;5092088;28;20054;-71
2023/08/01 11:57:22;;;;;;;7.15;4.28;;;;;;;;;;5091696;28;20034;-71
2023/08/01 11:59:50;;;;;;;4.53;3.88;;;;;;;;;;5091477;28;20043;-71
2023/08/01 12:02:25;;;;;;;7.53;4.40;;;;;;;;;;5091176;28;20032;-71
2023/08/01 12:04:52;;;;;;;5.35;3.60;;;;;;;;;;5091552;28;20040;-72
2023/08/01 12:07:18;;;;;;;7.60;3.80;;;;;;;;;;5091674;28;20024;-72
2023/08/01 12:09:57;;;;;;;5.15;3.90;;;;;;;;;;5090278;28;20074;-72
2023/08/01 12:12:23;;;;;;;5.93;3.75;;;;;;;;;;5090985;28;20032;-72
2023/08/01 12:14:49;;;;;;;9.77;4.60;;;;;;;;;;5090799;28;20081;-71
2023/08/01 12:17:15;;;;;;;5.40;4.18;;;;;;;;;;5090931;28;20028;-72
2023/08/01 12:19:40;;;;;;;9.15;4.35;;;;;;;;;;5091244;28;20456;-72
2023/08/01 12:22:08;;;;;;;6.72;4.40;;;;;;;;;;5091347;28;20028;-72
2023/08/01 12:24:36;;;;;;;5.95;3.55;;;;;;;;;;5090806;28;20031;-71
2023/08/01 12:27:03;;;;;;;7.10;3.72;;;;;;;;;;5091255;28;20054;-71
2023/08/01 12:29:28;;;;;;;7.25;3.58;;;;;;;;;;5091362;28;20024;-71
2023/08/01 12:31:54;;;;;;;5.15;4.10;;;;;;;;;;5092210;28;20062;-72
2023/08/01 12:34:20;;;;;;;5.45;3.70;;;;;;;;;;5090848;28;20093;-71
2023/08/01 12:36:46;;;;;;;7.43;4.10;;;;;;;;;;5091386;28;20397;-72
2023/08/01 12:39:11;;;;;;;5.47;4.32;;;;;;;;;;5090358;28;20059;-73
2023/08/01 12:41:38;;;;;;;6.13;3.63;;;;;;;;;;5072800;28;20257;-73
2023/08/01 12:44:04;;;;;;;5.28;4.10;;;;;;;;;;5090311;28;20118;-72
2023/08/01 12:46:31;;;;;;;6.18;4.10;;;;;;;;;;5090918;28;20040;-72
2023/08/01 12:48:56;;;;;;;5.65;4.03;;;;;;;;;;5091826;28;20031;-72
2023/08/01 12:51:22;;;;;;;6.53;4.47;;;;;;;;;;5076973;28;20066;-73
2023/08/01 12:53:48;;;;;;;5.57;3.95;;;;;;;;;;5075178;28;20073;-73
2023/08/01 12:56:14;;;;;;;4.50;3.70;;;;;;;;;;5076556;28;20036;-72
2023/08/01 12:58:40;;;;;;;4.85;3.63;;;;;;;;;;5094339;28;20043;-72
2023/08/01 13:01:06;;;;;;;5.65;3.80;;;;;;;;;;5094209;28;20028;-72
2023/08/01 13:03:32;;;;;;;10.30;3.97;;;;;;;;;;5075898;28;20070;-73
2023/08/01 13:05:58;;;;;;;8.32;4.55;;;;;;;;;;5092790;28;20071;-70
2023/08/01 13:08:24;;;;;;;6.20;3.40;;;;;;;;;;5093389;28;20484;-72
2023/08/01 13:10:50;;;;;;;5.88;3.60;;;;;;;;;;5093083;28;20146;-72
2023/08/01 13:13:17;;;;;;;9.23;3.78;;;;;;;;;;5093720;28;20019;-73
2023/08/01 13:15:43;;;;;;;5.68;3.85;;;;;;;;;;5091377;28;20031;-71
2023/08/01 13:18:10;;;;;;;8.13;3.72;;;;;;;;;;5101423;28;20093;-72
2023/08/01 13:20:36;;;;;;;5.53;3.53;;;;;;;;;;5080210;28;20103;-72
2023/08/01 13:23:03;;;;;;;5.40;3.70;;;;;;;;;;5095011;28;20526;-72
2023/08/01 13:25:29;;;;;;;8.18;4.10;;;;;;;;;;5093730;28;20489;-70
2023/08/01 13:27:55;;;;;;;4.80;3.97;;;;;;;;;;5091833;28;20031;-71
2023/08/01 13:30:21;;;;;;;6.97;3.70;;;;;;;;;;5094188;28;20489;-72
2023/08/01 13:32:47;;;;;;;5.55;3.83;;;;;;;;;;5094162;28;20095;-72
2023/08/01 13:35:13;;;;;;;5.65;3.95;;;;;;;;;;5093257;28;20032;-70
2023/08/01 13:37:39;;;;;;;7.15;4.40;;;;;;;;;;5093572;28;20470;-72
2023/08/01 13:40:07;;;;;;;4.47;3.47;;;;;;;;;;5093304;28;20084;-71
2023/08/01 13:42:32;;;;;;;7.63;3.47;;;;;;;;;;5093443;28;20044;-71
2023/08/01 13:44:59;;;;;;;4.03;3.53;;;;;;;;;;5093350;28;20545;-71
2023/08/01 13:47:25;;;;;;;5.05;3.67;;;;;;;;;;5093119;28;20477;-72
2023/08/01 13:49:51;;;;;;;11.50;3.90;;;;;;;;;;5093852;28;20040;-72
2023/08/01 13:52:17;;;;;;;7.45;3.53;;;;;;;;;;5093892;28;20024;-71
2023/08/01 13:54:43;;;;;;;4.05;3.65;;;;;;;;;;5092415;28;20125;-74
2023/08/01 13:57:09;;;;;;;4.25;3.63;;;;;;;;;;5093783;28;20054;-72
2023/08/01 13:59:36;;;;;;;5.05;3.70;;;;;;;;;;5093910;28;20097;-72
2023/08/01 14:02:03;;;;;;;5.18;4.03;;;;;;;;;;5096702;28;20020;-70
2023/08/01 14:04:28;;;;;;;7.07;3.88;;;;;;;;;;5093024;28;20036;-71
2023/08/01 14:06:55;;;;;;;5.15;3.80;;;;;;;;;;5093074;28;20024;-72
2023/08/01 14:09:20;;;;;;;4.32;3.92;;;;;;;;;;5093146;28;20048;-73
2023/08/01 14:11:46;;;;;;;6.55;4.07;;;;;;;;;;5074498;28;20519;-72
2023/08/01 14:14:12;;;;;;;5.97;4.00;;;;;;;;;;5092772;28;20071;-73
2023/08/01 14:16:38;;;;;;;4.95;3.33;;;;;;;;;;5084726;28;20020;-72
2023/08/01 14:19:04;;;;;;;5.30;3.45;;;;;;;;;;5093176;28;20032;-71
2023/08/01 14:21:29;;;;;;;5.28;3.85;;;;;;;;;;5092982;28;20043;-72
2023/08/01 14:23:55;;;;;;;5.43;3.72;;;;;;;;;;5092922;28;20028;-72
2023/08/01 14:26:23;;;;;;;5.90;3.88;;;;;;;;;;5092972;28;20032;-71
2023/08/01 14:28:50;;;;;;;6.25;4.07;;;;;;;;;;5092591;28;20048;-72
2023/08/01 14:31:15;;;;;;;8.05;4.07;;;;;;;;;;5072259;28;20023;-72
2023/08/01 14:33:41;;;;;;;6.40;3.53;;;;;;;;;;5074271;28;20477;-72
2023/08/01 14:36:09;;;;;;;6.57;3.97;;;;;;;;;;5092251;28;20081;-72
2023/08/01 14:38:35;;;;;;;5.50;3.72;;;;;;;;;;5092437;28;20402;-71